createdAt,value
2022-10-14T00:00:38.160Z,0.00
2022-10-14T00:01:38.351Z,0.00
2022-10-14T00:02:38.161Z,0.00
2022-10-14T00:03:38.192Z,0.00
2022-10-14T00:04:38.226Z,0.00
2022-10-14T00:05:38.197Z,0.00
2022-10-14T00:06:38.213Z,0.00
2022-10-14T00:07:38.200Z,0.00
2022-10-14T00:08:38.209Z,0.00
2022-10-14T00:09:38.141Z,0.00
2022-10-14T00:10:38.213Z,0.00
2022-10-14T00:11:38.207Z,0.00
2022-10-14T00:12:38.108Z,0.00
2022-10-14T00:13:38.240Z,0.00
2022-10-14T00:14:38.120Z,0.00
2022-10-14T00:15:38.301Z,0.00
2022-10-14T00:16:38.032Z,0.00
2022-10-14T00:17:38.000Z,0.00
2022-10-14T00:18:38.028Z,0.00
2022-10-14T00:19:38.017Z,0.00
2022-10-14T00:20:37.943Z,0.00
2022-10-14T00:21:38.456Z,0.00
2022-10-14T00:22:38.502Z,0.00
2022-10-14T00:23:37.925Z,0.00
2022-10-14T00:24:37.894Z,0.00
2022-10-14T00:25:37.885Z,0.00
2022-10-14T00:26:37.874Z,0.00
2022-10-14T00:27:37.862Z,0.00
2022-10-14T00:28:37.929Z,0.00
2022-10-14T00:29:37.837Z,0.00
2022-10-14T00:30:37.859Z,0.00
2022-10-14T00:31:37.842Z,0.00
2022-10-14T00:32:37.821Z,0.00
2022-10-14T00:33:37.833Z,0.00
2022-10-14T00:34:38.837Z,0.00
2022-10-14T00:35:37.802Z,0.00
2022-10-14T00:36:37.889Z,0.00
2022-10-14T00:37:37.802Z,0.00
2022-10-14T00:38:37.825Z,0.00
2022-10-14T00:39:37.866Z,0.00
2022-10-14T00:40:37.813Z,0.00
2022-10-14T00:41:37.845Z,0.00
2022-10-14T00:42:37.853Z,0.00
2022-10-14T00:43:37.889Z,0.00
2022-10-14T00:44:37.853Z,0.00
2022-10-14T00:45:37.905Z,0.00
2022-10-14T00:46:37.878Z,0.00
2022-10-14T00:47:37.913Z,0.00
2022-10-14T00:48:37.814Z,0.00
2022-10-14T00:49:37.917Z,0.00
2022-10-14T00:50:37.597Z,0.00
2022-10-14T00:51:37.889Z,0.00
2022-10-14T00:52:37.581Z,0.00
2022-10-14T00:53:37.613Z,0.00
2022-10-14T00:54:37.569Z,0.00
2022-10-14T00:55:37.554Z,0.00
2022-10-14T00:56:37.573Z,0.00
2022-10-14T00:57:37.526Z,0.00
2022-10-14T00:58:37.498Z,0.00
2022-10-14T00:59:37.505Z,0.00
2022-10-14T01:00:37.565Z,0.00
2022-10-14T01:01:37.488Z,0.00
2022-10-14T01:02:37.471Z,0.00
2022-10-14T01:03:37.457Z,0.00
2022-10-14T01:04:37.505Z,0.00
2022-10-14T01:05:37.422Z,0.00
2022-10-14T01:06:37.441Z,0.00
2022-10-14T01:07:37.419Z,0.00
2022-10-14T01:08:37.396Z,0.00
2022-10-14T01:09:37.385Z,0.00
2022-10-14T01:10:37.366Z,0.00
2022-10-14T01:11:37.366Z,0.00
2022-10-14T01:12:37.423Z,0.00
2022-10-14T01:13:37.337Z,0.00
2022-10-14T01:14:37.339Z,0.00
2022-10-14T01:15:37.325Z,0.00
2022-10-14T01:16:37.303Z,0.00
2022-10-14T01:17:37.296Z,0.00
2022-10-14T01:18:37.282Z,0.00
2022-10-14T01:19:37.317Z,0.00
2022-10-14T01:20:37.251Z,0.00
2022-10-14T01:21:37.250Z,0.00
2022-10-14T01:22:37.226Z,0.00
2022-10-14T01:23:37.231Z,0.00
2022-10-14T01:24:37.210Z,0.00
2022-10-14T01:25:37.199Z,0.00
2022-10-14T01:26:37.189Z,0.00
2022-10-14T01:27:37.187Z,0.00
2022-10-14T01:28:37.211Z,0.00
2022-10-14T01:29:37.168Z,0.00
2022-10-14T01:30:37.159Z,0.00
2022-10-14T01:31:37.146Z,0.00
2022-10-14T01:32:37.131Z,0.00
2022-10-14T01:33:37.119Z,0.00
2022-10-14T01:34:37.122Z,0.00
2022-10-14T01:35:37.099Z,0.00
2022-10-14T01:36:37.098Z,0.00
2022-10-14T01:37:37.070Z,0.00
2022-10-14T01:38:37.060Z,0.00
2022-10-14T01:39:37.072Z,0.00
2022-10-14T01:40:37.074Z,0.00
2022-10-14T01:41:37.036Z,0.00
2022-10-14T01:42:37.016Z,0.00
2022-10-14T01:43:37.010Z,0.00
2022-10-14T01:44:37.002Z,0.00
2022-10-14T01:45:36.980Z,0.00
2022-10-14T01:46:36.976Z,0.00
2022-10-14T01:47:36.990Z,0.00
2022-10-14T01:48:36.933Z,0.00
2022-10-14T01:49:36.936Z,0.00
2022-10-14T01:50:36.943Z,0.00
2022-10-14T01:51:36.914Z,0.00
2022-10-14T01:52:36.890Z,0.00
2022-10-14T01:53:36.891Z,0.00
2022-10-14T01:54:36.870Z,0.00
2022-10-14T01:55:36.883Z,0.00
2022-10-14T01:56:40.372Z,0.00
2022-10-14T01:57:36.843Z,0.00
2022-10-14T01:58:36.826Z,0.00
2022-10-14T01:59:36.827Z,0.00
2022-10-14T02:00:36.816Z,0.00
2022-10-14T02:01:36.898Z,0.00
2022-10-14T02:02:37.094Z,0.00
2022-10-14T02:03:36.772Z,0.00
2022-10-14T02:04:36.783Z,0.00
2022-10-14T02:05:36.763Z,0.00
2022-10-14T02:06:36.722Z,0.00
2022-10-14T02:07:36.744Z,0.00
2022-10-14T02:08:36.716Z,0.00
2022-10-14T02:09:36.723Z,0.00
2022-10-14T02:10:36.703Z,0.00
2022-10-14T02:11:36.683Z,0.00
2022-10-14T02:12:36.671Z,0.00
2022-10-14T02:13:36.683Z,0.00
2022-10-14T02:14:36.836Z,0.00
2022-10-14T02:15:36.656Z,0.00
2022-10-14T02:16:36.636Z,0.00
2022-10-14T02:17:36.748Z,0.00
2022-10-14T02:18:36.602Z,0.00
2022-10-14T02:19:36.603Z,0.00
2022-10-14T02:20:36.595Z,0.00
2022-10-14T02:21:36.584Z,0.00
2022-10-14T02:22:37.127Z,0.00
2022-10-14T02:23:36.556Z,0.00
2022-10-14T02:24:36.567Z,0.00
2022-10-14T02:25:36.543Z,0.00
2022-10-14T02:26:36.510Z,0.00
2022-10-14T02:27:36.507Z,0.00
2022-10-14T02:28:36.532Z,0.00
2022-10-14T02:29:36.487Z,0.00
2022-10-14T02:30:36.495Z,0.00
2022-10-14T02:31:36.464Z,0.00
2022-10-14T02:32:36.443Z,0.00
2022-10-14T02:33:36.447Z,0.00
2022-10-14T02:34:36.425Z,0.00
2022-10-14T02:35:36.436Z,0.00
2022-10-14T02:36:36.416Z,0.00
2022-10-14T02:37:36.395Z,0.00
2022-10-14T02:38:36.379Z,0.00
2022-10-14T02:39:36.370Z,0.00
2022-10-14T02:40:36.366Z,0.00
2022-10-14T02:41:36.380Z,0.00
2022-10-14T02:42:36.336Z,0.00
2022-10-14T02:43:36.349Z,0.00
2022-10-14T02:44:36.339Z,0.00
2022-10-14T02:45:36.319Z,0.00
2022-10-14T02:46:36.819Z,0.00
2022-10-14T02:47:36.275Z,0.00
2022-10-14T02:48:36.259Z,0.00
2022-10-14T02:49:36.248Z,0.00
2022-10-14T02:50:36.241Z,0.00
2022-10-14T02:51:36.239Z,0.00
2022-10-14T02:52:36.216Z,0.00
2022-10-14T02:53:36.207Z,0.00
2022-10-14T02:54:36.209Z,0.00
2022-10-14T02:55:36.194Z,0.00
2022-10-14T02:56:36.179Z,0.00
2022-10-14T02:57:36.167Z,0.00
2022-10-14T02:58:36.144Z,0.00
2022-10-14T02:59:36.176Z,0.00
2022-10-14T03:00:36.129Z,0.00
2022-10-14T03:01:37.690Z,0.00
2022-10-14T03:02:36.216Z,0.00
2022-10-14T03:03:36.112Z,0.00
2022-10-14T03:04:36.120Z,0.00
2022-10-14T03:05:36.075Z,0.00
2022-10-14T03:06:36.066Z,0.00
2022-10-14T03:07:36.072Z,0.00
2022-10-14T03:08:36.033Z,0.00
2022-10-14T03:09:36.040Z,0.00
2022-10-14T03:10:36.028Z,0.00
2022-10-14T03:11:36.011Z,0.00
2022-10-14T03:12:36.088Z,0.00
2022-10-14T03:13:35.980Z,0.00
2022-10-14T03:14:35.973Z,0.00
2022-10-14T03:15:36.300Z,0.00
2022-10-14T03:16:35.960Z,0.00
2022-10-14T03:17:35.952Z,0.00
2022-10-14T03:18:35.913Z,0.00
2022-10-14T03:19:35.915Z,0.00
2022-10-14T03:20:35.900Z,0.00
2022-10-14T03:21:35.905Z,0.00
2022-10-14T03:22:35.884Z,0.00
2022-10-14T03:23:35.862Z,0.00
2022-10-14T03:24:35.855Z,0.00
2022-10-14T03:25:35.881Z,0.00
2022-10-14T03:26:35.824Z,0.00
2022-10-14T03:27:35.832Z,0.00
2022-10-14T03:28:35.952Z,0.00
2022-10-14T03:29:35.802Z,0.00
2022-10-14T03:30:35.785Z,0.00
2022-10-14T03:31:35.797Z,0.00
2022-10-14T03:32:35.761Z,0.00
2022-10-14T03:33:35.761Z,0.00
2022-10-14T03:34:35.784Z,0.00
2022-10-14T03:35:35.735Z,0.00
2022-10-14T03:36:35.737Z,0.00
2022-10-14T03:37:35.709Z,0.00
2022-10-14T03:38:35.692Z,0.00
2022-10-14T03:39:35.673Z,0.00
2022-10-14T03:40:35.666Z,0.00
2022-10-14T03:41:35.674Z,0.00
2022-10-14T03:42:35.666Z,0.00
2022-10-14T03:43:35.674Z,0.00
2022-10-14T03:44:35.759Z,0.00
2022-10-14T03:45:35.732Z,0.00
2022-10-14T03:46:35.745Z,0.00
2022-10-14T03:47:35.786Z,0.00
2022-10-14T03:48:35.685Z,0.00
2022-10-14T03:49:35.707Z,0.00
2022-10-14T03:50:35.562Z,0.00
2022-10-14T03:51:35.586Z,0.00
2022-10-14T03:52:35.571Z,0.00
2022-10-14T03:53:35.544Z,0.00
2022-10-14T03:54:35.517Z,0.00
2022-10-14T03:55:35.505Z,0.00
2022-10-14T03:56:35.498Z,0.00
2022-10-14T03:57:35.484Z,0.00
2022-10-14T03:58:35.481Z,0.00
2022-10-14T03:59:35.478Z,0.00
2022-10-14T04:00:35.437Z,0.00
2022-10-14T04:01:35.478Z,0.00
2022-10-14T04:02:35.419Z,0.00
2022-10-14T04:03:35.458Z,0.00
2022-10-14T04:04:35.397Z,0.00
2022-10-14T04:05:35.413Z,0.00
2022-10-14T04:06:35.389Z,0.00
2022-10-14T04:07:35.366Z,0.00
2022-10-14T04:08:35.346Z,0.00
2022-10-14T04:09:35.398Z,0.00
2022-10-14T04:10:35.425Z,0.00
2022-10-14T04:11:35.710Z,0.00
2022-10-14T04:12:35.385Z,0.00
2022-10-14T04:13:35.345Z,0.00
2022-10-14T04:14:35.285Z,0.00
2022-10-14T04:15:35.285Z,0.00
2022-10-14T04:16:35.270Z,0.00
2022-10-14T04:17:35.306Z,0.00
2022-10-14T04:18:35.477Z,0.00
2022-10-14T04:19:35.265Z,0.00
2022-10-14T04:20:35.237Z,0.00
2022-10-14T04:21:35.209Z,0.00
2022-10-14T04:22:35.198Z,0.00
2022-10-14T04:23:35.200Z,0.00
2022-10-14T04:24:35.221Z,0.00
2022-10-14T04:25:35.218Z,0.00
2022-10-14T04:26:35.158Z,0.00
2022-10-14T04:27:35.202Z,0.00
2022-10-14T04:28:35.228Z,0.00
2022-10-14T04:29:35.152Z,0.00
2022-10-14T04:30:35.150Z,0.00
2022-10-14T04:31:35.479Z,0.00
2022-10-14T04:32:35.098Z,0.00
2022-10-14T04:33:35.108Z,0.00
2022-10-14T04:34:35.096Z,0.00
2022-10-14T04:35:35.090Z,0.00
2022-10-14T04:36:35.042Z,0.00
2022-10-14T04:37:35.038Z,0.00
2022-10-14T04:38:35.011Z,0.00
2022-10-14T04:39:35.037Z,0.00
2022-10-14T04:40:34.995Z,0.00
2022-10-14T04:41:35.018Z,0.00
2022-10-14T04:42:34.959Z,0.00
2022-10-14T04:43:34.989Z,0.00
2022-10-14T04:44:34.946Z,0.00
2022-10-14T04:45:34.963Z,0.00
2022-10-14T04:46:34.921Z,0.00
2022-10-14T04:47:35.058Z,0.00
2022-10-14T04:48:34.922Z,0.00
2022-10-14T04:49:34.902Z,0.00
2022-10-14T04:50:34.870Z,0.00
2022-10-14T04:51:34.964Z,0.00
2022-10-14T04:52:34.850Z,0.00
2022-10-14T04:53:34.869Z,0.00
2022-10-14T04:54:34.854Z,0.00
2022-10-14T04:55:34.829Z,0.00
2022-10-14T04:56:34.814Z,0.00
2022-10-14T04:57:34.822Z,0.00
2022-10-14T04:58:34.813Z,0.00
2022-10-14T04:59:34.770Z,0.00
2022-10-14T05:00:34.802Z,0.00
2022-10-14T05:01:34.822Z,0.00
2022-10-14T05:02:34.774Z,0.00
2022-10-14T05:03:34.770Z,0.00
2022-10-14T05:04:34.725Z,0.00
2022-10-14T05:05:34.730Z,0.00
2022-10-14T05:06:34.703Z,0.00
2022-10-14T05:07:34.694Z,0.00
2022-10-14T05:08:34.674Z,0.00
2022-10-14T05:09:34.682Z,0.00
2022-10-14T05:10:34.674Z,0.00
2022-10-14T05:11:34.674Z,0.00
2022-10-14T05:12:34.640Z,0.00
2022-10-14T05:13:34.623Z,0.00
2022-10-14T05:14:34.615Z,0.00
2022-10-14T05:15:34.611Z,0.00
2022-10-14T05:16:34.595Z,0.00
2022-10-14T05:17:34.610Z,0.00
2022-10-14T05:18:34.563Z,0.00
2022-10-14T05:19:34.554Z,0.00
2022-10-14T05:20:34.544Z,0.00
2022-10-14T05:21:34.555Z,0.00
2022-10-14T05:22:34.540Z,0.00
2022-10-14T05:23:34.511Z,0.00
2022-10-14T05:24:34.502Z,0.00
2022-10-14T05:25:34.494Z,0.00
2022-10-14T05:26:34.514Z,0.00
2022-10-14T05:27:34.447Z,0.00
2022-10-14T05:28:34.476Z,0.00
2022-10-14T05:29:34.436Z,0.00
2022-10-14T05:30:34.970Z,0.00
2022-10-14T05:31:34.431Z,4.00
2022-10-14T05:32:34.439Z,4.00
2022-10-14T05:33:34.406Z,0.00
2022-10-14T05:34:34.395Z,4.00
2022-10-14T05:35:57.717Z,4.00
2022-10-14T05:36:35.375Z,4.00
2022-10-14T05:37:34.515Z,4.00
2022-10-14T05:38:34.476Z,4.00
2022-10-14T05:39:34.556Z,4.00
2022-10-14T05:40:34.615Z,4.00
2022-10-14T05:41:34.331Z,4.00
2022-10-14T05:42:34.316Z,4.00
2022-10-14T05:43:34.276Z,4.00
2022-10-14T05:44:34.288Z,4.00
2022-10-14T05:45:34.266Z,4.00
2022-10-14T05:46:34.254Z,4.00
2022-10-14T05:47:34.238Z,8.00
2022-10-14T05:48:34.226Z,8.00
2022-10-14T05:49:34.260Z,12.00
2022-10-14T05:50:34.227Z,16.00
2022-10-14T05:51:34.187Z,16.00
2022-10-14T05:52:34.468Z,16.00
2022-10-14T05:53:34.180Z,16.00
2022-10-14T05:54:34.168Z,12.00
2022-10-14T05:55:34.188Z,12.00
2022-10-14T05:56:34.147Z,16.00
2022-10-14T05:57:34.121Z,16.00
2022-10-14T05:58:34.131Z,20.00
2022-10-14T05:59:34.100Z,20.00
2022-10-14T06:00:34.100Z,24.00
2022-10-14T06:01:34.101Z,32.00
2022-10-14T06:02:34.087Z,32.00
2022-10-14T06:03:34.084Z,36.00
2022-10-14T06:04:34.047Z,32.00
2022-10-14T06:05:34.039Z,36.00
2022-10-14T06:06:34.019Z,40.00
2022-10-14T06:07:34.032Z,44.00
2022-10-14T06:08:34.007Z,48.00
2022-10-14T06:09:34.007Z,48.00
2022-10-14T06:10:33.994Z,48.00
2022-10-14T06:11:33.999Z,48.00
2022-10-14T06:12:33.960Z,48.00
2022-10-14T06:13:33.946Z,52.00
2022-10-14T06:14:33.947Z,52.00
2022-10-14T06:15:33.931Z,52.00
2022-10-14T06:16:33.933Z,48.00
2022-10-14T06:17:33.911Z,48.00
2022-10-14T06:18:33.894Z,52.00
2022-10-14T06:19:33.879Z,60.00
2022-10-14T06:20:34.151Z,72.00
2022-10-14T06:21:33.851Z,84.00
2022-10-14T06:22:33.853Z,100.00
2022-10-14T06:23:33.851Z,112.00
2022-10-14T06:24:33.831Z,116.00
2022-10-14T06:25:33.799Z,112.00
2022-10-14T06:26:33.815Z,100.00
2022-10-14T06:27:33.794Z,88.00
2022-10-14T06:28:33.844Z,80.00
2022-10-14T06:29:33.761Z,88.00
2022-10-14T06:30:33.765Z,100.00
2022-10-14T06:31:33.752Z,124.00
2022-10-14T06:32:33.732Z,140.00
2022-10-14T06:33:34.060Z,144.00
2022-10-14T06:34:33.712Z,152.00
2022-10-14T06:35:33.687Z,168.00
2022-10-14T06:36:33.703Z,188.00
2022-10-14T06:37:33.672Z,208.00
2022-10-14T06:38:33.683Z,208.00
2022-10-14T06:39:33.645Z,196.00
2022-10-14T06:40:34.279Z,188.00
2022-10-14T06:41:33.641Z,192.00
2022-10-14T06:42:33.626Z,212.00
2022-10-14T06:43:33.704Z,244.00
2022-10-14T06:44:33.604Z,260.00
2022-10-14T06:45:33.580Z,256.00
2022-10-14T06:46:33.572Z,252.00
2022-10-14T06:47:33.559Z,248.00
2022-10-14T06:48:33.568Z,252.00
2022-10-14T06:49:33.588Z,268.00
2022-10-14T06:50:33.524Z,268.00
2022-10-14T06:51:33.512Z,264.00
2022-10-14T06:52:33.534Z,232.00
2022-10-14T06:53:33.496Z,204.00
2022-10-14T06:54:38.157Z,192.00
2022-10-14T06:55:34.492Z,188.00
2022-10-14T06:56:33.464Z,192.00
2022-10-14T06:57:33.464Z,200.00
2022-10-14T06:58:33.444Z,224.00
2022-10-14T06:59:33.433Z,252.00
2022-10-14T07:00:33.424Z,280.00
2022-10-14T07:01:33.463Z,312.00
2022-10-14T07:02:33.393Z,336.00
2022-10-14T07:03:34.186Z,364.00
2022-10-14T07:04:33.379Z,400.00
2022-10-14T07:05:33.371Z,440.00
2022-10-14T07:06:33.364Z,464.00
2022-10-14T07:07:33.332Z,476.00
2022-10-14T07:08:33.368Z,512.00
2022-10-14T07:09:33.318Z,556.00
2022-10-14T07:10:33.306Z,576.00
2022-10-14T07:11:33.284Z,580.00
2022-10-14T07:12:33.285Z,596.00
2022-10-14T07:13:33.276Z,664.00
2022-10-14T07:14:33.336Z,752.00
2022-10-14T07:15:36.137Z,808.00
2022-10-14T07:16:33.256Z,800.00
2022-10-14T07:17:33.241Z,796.00
2022-10-14T07:18:33.230Z,816.00
2022-10-14T07:19:33.197Z,844.00
2022-10-14T07:20:33.549Z,860.00
2022-10-14T07:21:33.168Z,892.00
2022-10-14T07:22:38.320Z,924.00
2022-10-14T07:23:34.171Z,960.00
2022-10-14T07:24:33.156Z,948.00
2022-10-14T07:25:33.140Z,976.00
2022-10-14T07:26:33.125Z,1032.00
2022-10-14T07:27:33.137Z,1036.00
2022-10-14T07:28:33.142Z,1040.00
2022-10-14T07:29:33.129Z,1056.00
2022-10-14T07:30:33.108Z,1064.00
2022-10-14T07:31:33.057Z,1060.00
2022-10-14T07:32:33.057Z,1016.00
2022-10-14T07:33:33.121Z,956.00
2022-10-14T07:34:33.036Z,944.00
2022-10-14T07:35:33.040Z,936.00
2022-10-14T07:36:33.045Z,924.00
2022-10-14T07:37:32.996Z,988.00
2022-10-14T07:38:32.980Z,1024.00
2022-10-14T07:39:32.976Z,1096.00
2022-10-14T07:40:33.185Z,1132.00
2022-10-14T07:41:32.949Z,1192.00
2022-10-14T07:42:32.950Z,1228.00
2022-10-14T07:43:32.965Z,1252.00
2022-10-14T07:44:32.929Z,1308.00
2022-10-14T07:45:32.902Z,1288.00
2022-10-14T07:46:32.936Z,1252.00
2022-10-14T07:47:32.882Z,1248.00
2022-10-14T07:48:44.943Z,1264.00
2022-10-14T07:49:33.861Z,1336.00
2022-10-14T07:50:32.872Z,1236.00
2022-10-14T07:51:33.065Z,1188.00
2022-10-14T07:52:32.842Z,1220.00
2022-10-14T07:53:32.838Z,1236.00
2022-10-14T07:54:32.809Z,1216.00
2022-10-14T07:55:32.809Z,1200.00
2022-10-14T07:56:32.822Z,1156.00
2022-10-14T07:57:32.809Z,1152.00
2022-10-14T07:58:32.790Z,1136.00
2022-10-14T07:59:32.769Z,1140.00
2022-10-14T08:00:32.832Z,1128.00
2022-10-14T08:01:32.811Z,1136.00
2022-10-14T08:02:32.797Z,1152.00
2022-10-14T08:03:32.713Z,1172.00
2022-10-14T08:04:32.713Z,1148.00
2022-10-14T08:05:38.225Z,1136.00
2022-10-14T08:06:33.681Z,1164.00
2022-10-14T08:07:32.655Z,1196.00
2022-10-14T08:08:32.661Z,1204.00
2022-10-14T08:09:32.666Z,1204.00
2022-10-14T08:10:32.637Z,1200.00
2022-10-14T08:11:32.642Z,1184.00
2022-10-14T08:12:32.615Z,1128.00
2022-10-14T08:13:32.605Z,1056.00
2022-10-14T08:14:32.602Z,1020.00
2022-10-14T08:15:32.574Z,992.00
2022-10-14T08:16:32.561Z,984.00
2022-10-14T08:17:32.563Z,992.00
2022-10-14T08:18:32.553Z,1032.00
2022-10-14T08:19:32.521Z,1116.00
2022-10-14T08:20:32.521Z,1180.00
2022-10-14T08:21:32.504Z,1232.00
2022-10-14T08:22:32.530Z,1236.00
2022-10-14T08:23:32.494Z,1220.00
2022-10-14T08:24:32.518Z,1200.00
2022-10-14T08:25:32.454Z,1180.00
2022-10-14T08:26:32.448Z,1152.00
2022-10-14T08:27:32.437Z,1112.00
2022-10-14T08:28:32.477Z,1116.00
2022-10-14T08:29:32.446Z,1156.00
2022-10-14T08:30:32.406Z,1212.00
2022-10-14T08:31:32.375Z,1228.00
2022-10-14T08:32:32.403Z,1200.00
2022-10-14T08:33:32.355Z,1148.00
2022-10-14T08:34:32.378Z,1092.00
2022-10-14T08:35:32.354Z,1020.00
2022-10-14T08:36:32.343Z,944.00
2022-10-14T08:37:32.323Z,880.00
2022-10-14T08:38:32.318Z,856.00
2022-10-14T08:39:32.314Z,864.00
2022-10-14T08:40:32.298Z,888.00
2022-10-14T08:41:32.270Z,976.00
2022-10-14T08:42:32.283Z,1032.00
2022-10-14T08:43:32.270Z,1032.00
2022-10-14T08:44:32.246Z,1020.00
2022-10-14T08:45:32.239Z,1012.00
2022-10-14T08:46:32.229Z,1040.00
2022-10-14T08:47:32.211Z,1076.00
2022-10-14T08:48:32.207Z,1112.00
2022-10-14T08:49:32.178Z,1156.00
2022-10-14T08:50:32.254Z,1216.00
2022-10-14T08:51:32.152Z,1264.00
2022-10-14T08:52:35.067Z,1260.00
2022-10-14T08:53:33.147Z,1240.00
2022-10-14T08:54:32.141Z,1216.00
2022-10-14T08:55:32.118Z,1200.00
2022-10-14T08:56:32.127Z,1216.00
2022-10-14T08:57:32.078Z,1248.00
2022-10-14T08:58:32.183Z,1284.00
2022-10-14T08:59:32.059Z,1320.00
2022-10-14T09:00:32.144Z,1340.00
2022-10-14T09:01:32.085Z,1372.00
2022-10-14T09:02:32.247Z,1420.00
2022-10-14T09:03:32.035Z,1512.00
2022-10-14T09:04:32.073Z,1568.00
2022-10-14T09:05:32.030Z,1620.00
2022-10-14T09:06:32.131Z,1648.00
2022-10-14T09:07:32.180Z,1656.00
2022-10-14T09:08:32.060Z,1648.00
2022-10-14T09:09:32.499Z,1608.00
2022-10-14T09:10:32.068Z,1564.00
2022-10-14T09:11:34.293Z,1496.00
2022-10-14T09:12:32.140Z,1436.00
2022-10-14T09:13:32.102Z,1356.00
2022-10-14T09:14:32.087Z,1312.00
2022-10-14T09:15:32.111Z,1312.00
2022-10-14T09:16:32.123Z,1256.00
2022-10-14T09:17:34.108Z,1288.00
2022-10-14T09:18:32.885Z,1244.00
2022-10-14T09:19:32.031Z,1256.00
2022-10-14T09:20:31.827Z,1252.00
2022-10-14T09:21:51.764Z,1208.00
2022-10-14T09:22:32.823Z,1156.00
2022-10-14T09:23:31.803Z,1112.00
2022-10-14T09:24:31.797Z,1036.00
2022-10-14T09:25:31.795Z,1004.00
2022-10-14T09:26:31.771Z,1100.00
2022-10-14T09:27:31.834Z,1224.00
2022-10-14T09:28:31.804Z,1260.00
2022-10-14T09:29:32.006Z,1296.00
2022-10-14T09:30:31.863Z,1376.00
2022-10-14T09:32:31.891Z,1540.00
2022-10-14T09:33:31.816Z,1588.00
2022-10-14T09:34:31.816Z,1624.00
2022-10-14T09:35:31.903Z,1656.00
2022-10-14T09:36:31.834Z,1716.00
2022-10-14T09:37:31.880Z,1736.00
2022-10-14T09:38:31.760Z,1768.00
2022-10-14T09:39:31.845Z,1760.00
2022-10-14T09:40:31.844Z,1772.00
2022-10-14T09:41:31.915Z,1816.00
2022-10-14T09:42:31.847Z,1828.00
2022-10-14T09:43:31.719Z,1820.00
2022-10-14T09:44:31.564Z,1764.00
2022-10-14T09:45:31.583Z,1696.00
2022-10-14T09:46:31.550Z,1640.00
2022-10-14T09:47:31.533Z,1584.00
2022-10-14T09:48:31.529Z,1644.00
2022-10-14T09:49:31.516Z,1712.00
2022-10-14T09:50:31.498Z,1744.00
2022-10-14T09:51:31.553Z,1748.00
2022-10-14T09:52:31.463Z,1748.00
2022-10-14T09:53:31.472Z,1744.00
2022-10-14T09:54:31.469Z,1728.00
2022-10-14T09:55:31.461Z,1676.00
2022-10-14T09:56:31.436Z,1688.00
2022-10-14T09:57:31.460Z,1656.00
2022-10-14T09:58:31.408Z,1632.00
2022-10-14T09:59:31.395Z,1608.00
2022-10-14T10:00:31.419Z,1600.00
2022-10-14T10:01:31.388Z,1572.00
2022-10-14T10:02:31.385Z,1552.00
2022-10-14T10:03:31.356Z,1672.00
2022-10-14T10:04:31.337Z,1676.00
2022-10-14T10:05:31.340Z,1632.00
2022-10-14T10:06:31.324Z,1632.00
2022-10-14T10:07:31.318Z,1492.00
2022-10-14T10:08:31.292Z,1244.00
2022-10-14T10:09:31.381Z,1212.00
2022-10-14T10:10:31.266Z,1072.00
2022-10-14T10:11:31.268Z,1040.00
2022-10-14T10:12:31.312Z,992.00
2022-10-14T10:13:31.308Z,996.00
2022-10-14T10:14:31.375Z,956.00
2022-10-14T10:15:31.408Z,932.00
2022-10-14T10:16:31.422Z,928.00
2022-10-14T10:17:31.458Z,924.00
2022-10-14T10:18:31.441Z,940.00
2022-10-14T10:19:31.182Z,940.00
2022-10-14T10:20:31.172Z,976.00
2022-10-14T10:21:31.140Z,980.00
2022-10-14T10:22:31.121Z,1000.00
2022-10-14T10:23:31.172Z,992.00
2022-10-14T10:24:31.092Z,1012.00
2022-10-14T10:25:31.101Z,1044.00
2022-10-14T10:26:31.081Z,1052.00
2022-10-14T10:27:31.084Z,1064.00
2022-10-14T10:28:31.120Z,1060.00
2022-10-14T10:29:31.071Z,1064.00
2022-10-14T10:30:31.032Z,1080.00
2022-10-14T10:31:31.103Z,1060.00
2022-10-14T10:32:31.020Z,1064.00
2022-10-14T10:33:31.021Z,1080.00
2022-10-14T10:34:31.012Z,1104.00
2022-10-14T10:35:30.981Z,1136.00
2022-10-14T10:36:30.990Z,1172.00
2022-10-14T10:37:30.960Z,1256.00
2022-10-14T10:38:30.940Z,1360.00
2022-10-14T10:39:30.960Z,1508.00
2022-10-14T10:40:30.913Z,1596.00
2022-10-14T10:41:30.944Z,1824.00
2022-10-14T10:42:30.913Z,1844.00
2022-10-14T10:43:30.893Z,1600.00
2022-10-14T10:44:30.901Z,1892.00
2022-10-14T10:45:35.525Z,1932.00
2022-10-14T10:46:31.902Z,1904.00
2022-10-14T10:47:30.853Z,1912.00
2022-10-14T10:48:30.840Z,1976.00
2022-10-14T10:49:30.833Z,1952.00
2022-10-14T10:50:30.813Z,1820.00
2022-10-14T10:51:30.805Z,1592.00
2022-10-14T10:52:30.796Z,1384.00
2022-10-14T10:53:30.785Z,1268.00
2022-10-14T10:54:30.785Z,1156.00
2022-10-14T10:55:30.767Z,1072.00
2022-10-14T10:56:30.765Z,1056.00
2022-10-14T10:57:30.773Z,1132.00
2022-10-14T10:58:30.719Z,1300.00
2022-10-14T10:59:30.740Z,1372.00
2022-10-14T11:00:30.708Z,1472.00
2022-10-14T11:01:30.748Z,1540.00
2022-10-14T11:02:30.684Z,1500.00
2022-10-14T11:03:30.667Z,1488.00
2022-10-14T11:04:30.677Z,1480.00
2022-10-14T11:05:30.646Z,1492.00
2022-10-14T11:06:30.645Z,1448.00
2022-10-14T11:07:30.674Z,1428.00
2022-10-14T11:08:30.652Z,1440.00
2022-10-14T11:09:30.597Z,1488.00
2022-10-14T11:10:30.586Z,1536.00
2022-10-14T11:11:30.597Z,1544.00
2022-10-14T11:12:30.589Z,1504.00
2022-10-14T11:13:32.414Z,1460.00
2022-10-14T11:14:30.570Z,1500.00
2022-10-14T11:15:30.552Z,1596.00
2022-10-14T11:16:30.530Z,1664.00
2022-10-14T11:17:30.555Z,1728.00
2022-10-14T11:18:30.511Z,1776.00
2022-10-14T11:19:30.529Z,1836.00
2022-10-14T11:20:30.469Z,1928.00
2022-10-14T11:21:30.469Z,1896.00
2022-10-14T11:22:30.442Z,2312.00
2022-10-14T11:23:30.457Z,2144.00
2022-10-14T11:24:30.417Z,1808.00
2022-10-14T11:25:30.441Z,1732.00
2022-10-14T11:26:30.457Z,1740.00
2022-10-14T11:27:30.980Z,1784.00
2022-10-14T11:28:30.430Z,1836.00
2022-10-14T11:29:30.426Z,1792.00
2022-10-14T11:30:30.361Z,1796.00
2022-10-14T11:31:30.357Z,1968.00
2022-10-14T11:32:30.338Z,2076.00
2022-10-14T11:33:30.350Z,1964.00
2022-10-14T11:34:30.326Z,1972.00
2022-10-14T11:35:30.349Z,1956.00
2022-10-14T11:36:30.290Z,1920.00
2022-10-14T11:37:30.340Z,1984.00
2022-10-14T11:38:30.628Z,2064.00
2022-10-14T11:39:31.981Z,2124.00
2022-10-14T11:40:30.263Z,2164.00
2022-10-14T11:41:30.249Z,2128.00
2022-10-14T11:42:30.229Z,2024.00
2022-10-14T11:43:30.294Z,1940.00
2022-10-14T11:44:30.261Z,1908.00
2022-10-14T11:45:30.266Z,1804.00
2022-10-14T11:46:30.169Z,1812.00
2022-10-14T11:47:30.216Z,1948.00
2022-10-14T11:48:30.185Z,1924.00
2022-10-14T11:49:30.158Z,2080.00
2022-10-14T11:50:30.127Z,2220.00
2022-10-14T11:51:34.792Z,2164.00
2022-10-14T11:52:31.122Z,2104.00
2022-10-14T11:53:30.153Z,1880.00
2022-10-14T11:54:30.217Z,1692.00
2022-10-14T11:55:30.086Z,1516.00
2022-10-14T11:56:30.090Z,1404.00
2022-10-14T11:57:30.077Z,1336.00
2022-10-14T11:58:30.234Z,1228.00
2022-10-14T11:59:30.066Z,1192.00
2022-10-14T12:00:30.096Z,1296.00
2022-10-14T12:01:32.931Z,1404.00
2022-10-14T12:02:31.069Z,1444.00
2022-10-14T12:03:29.998Z,1448.00
2022-10-14T12:04:30.005Z,1496.00
2022-10-14T12:05:30.046Z,1636.00
2022-10-14T12:06:30.002Z,1716.00
2022-10-14T12:07:30.106Z,1692.00
2022-10-14T12:08:33.145Z,1600.00
2022-10-14T12:09:30.995Z,1564.00
2022-10-14T12:10:29.930Z,1472.00
2022-10-14T12:11:29.923Z,1424.00
2022-10-14T12:12:29.923Z,1440.00
2022-10-14T12:13:29.880Z,1392.00
2022-10-14T12:14:29.867Z,1396.00
2022-10-14T12:16:29.842Z,1340.00
2022-10-14T12:17:29.847Z,1316.00
2022-10-14T12:18:29.917Z,1432.00
2022-10-14T12:19:29.812Z,1488.00
2022-10-14T12:20:29.800Z,1516.00
2022-10-14T12:21:29.798Z,1496.00
2022-10-14T12:22:29.765Z,1292.00
2022-10-14T12:23:29.806Z,1232.00
2022-10-14T12:24:29.747Z,1320.00
2022-10-14T12:25:29.751Z,1332.00
2022-10-14T12:26:29.770Z,1388.00
2022-10-14T12:27:29.877Z,1364.00
2022-10-14T12:28:29.789Z,1284.00
2022-10-14T12:29:29.738Z,1308.00
2022-10-14T12:30:29.740Z,1300.00
2022-10-14T12:31:29.722Z,1180.00
2022-10-14T12:32:29.792Z,1088.00
2022-10-14T12:33:29.762Z,1020.00
2022-10-14T12:34:29.772Z,968.00
2022-10-14T12:35:29.784Z,940.00
2022-10-14T12:36:29.855Z,916.00
2022-10-14T12:37:31.777Z,904.00
2022-10-14T12:38:29.930Z,912.00
2022-10-14T12:39:29.781Z,924.00
2022-10-14T12:40:29.747Z,904.00
2022-10-14T12:41:29.631Z,880.00
2022-10-14T12:42:29.967Z,876.00
2022-10-14T12:43:29.734Z,904.00
2022-10-14T12:44:29.782Z,928.00